Time;durP1;ratioP1;P1;durP2;ratioP2;P2;SDS_P1;SDS_P2;PMS_P1;PMS_P2;Temp;Humidity;BMP_temperature;BMP_pressure;BME280_temperature;BME280_humidity;BME280_pressure;Samples;Min_cycle;Max_cycle;Signal;HPM_P1;HPM_P2
2023/10/24 00:01:15;;;;;;;12.45;7.63;;;12.30;99.90;;;;;;5072213;28;20753;-58
2023/10/24 00:03:43;;;;;;;12.50;7.68;;;12.30;99.90;;;;;;5072123;28;20668;-58
2023/10/24 00:06:11;;;;;;;12.68;7.90;;;12.30;99.90;;;;;;5056267;28;20721;-56
2023/10/24 00:08:39;;;;;;;12.05;7.97;;;12.30;99.90;;;;;;5052574;28;20753;-57
2023/10/24 00:11:07;;;;;;;12.85;7.50;;;12.30;99.90;;;;;;5052076;28;20288;-58
2023/10/24 00:13:35;;;;;;;12.45;8.07;;;12.20;99.90;;;;;;5052092;28;20206;-58
2023/10/24 00:16:04;;;;;;;12.80;8.07;;;12.20;99.90;;;;;;5051910;28;20283;-58
2023/10/24 00:18:32;;;;;;;13.60;7.90;;;12.20;99.90;;;;;;5052397;28;20702;-56
2023/10/24 00:21:00;;;;;;;14.38;7.70;;;12.20;99.90;;;;;;5051639;28;20240;-57
2023/10/24 00:23:29;;;;;;;16.00;7.80;;;12.20;99.90;;;;;;5051271;28;20209;-56
2023/10/24 00:25:56;;;;;;;11.70;7.75;;;12.20;99.90;;;;;;5051755;28;20815;-57
2023/10/24 00:28:24;;;;;;;14.68;8.20;;;12.20;99.90;;;;;;5051886;28;20198;-57
2023/10/24 00:30:52;;;;;;;14.15;7.88;;;12.20;99.90;;;;;;5051715;28;20210;-57
2023/10/24 00:33:21;;;;;;;10.10;7.45;;;12.20;99.90;;;;;;5042959;28;20237;-58
2023/10/24 00:35:49;;;;;;;9.43;7.68;;;12.20;99.90;;;;;;5051417;28;20229;-58
2023/10/24 00:38:17;;;;;;;9.98;7.68;;;12.20;99.90;;;;;;5051697;28;20320;-59
2023/10/24 00:40:45;;;;;;;10.18;7.20;;;12.20;99.90;;;;;;5051621;28;20208;-59
2023/10/24 00:43:13;;;;;;;13.07;7.30;;;12.20;99.90;;;;;;5051863;28;20751;-59
2023/10/24 00:45:41;;;;;;;9.93;7.28;;;12.20;99.90;;;;;;5051320;28;20484;-57
2023/10/24 00:48:09;;;;;;;13.68;8.10;;;12.20;99.90;;;;;;5051203;28;20584;-56
2023/10/24 00:50:38;;;;;;;10.45;7.45;;;12.20;99.90;;;;;;5050830;28;20659;-56
2023/10/24 00:53:06;;;;;;;12.95;8.35;;;12.20;99.90;;;;;;5051438;28;20272;-58
2023/10/24 00:55:36;;;;;;;9.13;7.47;;;12.20;99.90;;;;;;5051018;28;20260;-59
2023/10/24 00:58:04;;;;;;;13.00;6.70;;;12.20;99.90;;;;;;5051314;28;20222;-57
2023/10/24 01:00:32;;;;;;;8.07;7.30;;;12.30;99.90;;;;;;5050969;28;20229;-58
2023/10/24 01:03:00;;;;;;;13.30;7.72;;;12.30;99.90;;;;;;5051410;28;20233;-58
2023/10/24 01:05:28;;;;;;;12.57;7.70;;;12.30;99.90;;;;;;5048759;28;20225;-58
2023/10/24 01:07:57;;;;;;;8.68;7.15;;;12.30;99.90;;;;;;5050791;28;20248;-59
2023/10/24 01:10:25;;;;;;;8.95;7.18;;;12.30;99.90;;;;;;5051449;28;20233;-57
2023/10/24 01:12:53;;;;;;;14.48;7.53;;;12.30;99.90;;;;;;5050347;28;20694;-59
2023/10/24 01:15:21;;;;;;;12.00;7.32;;;12.30;99.90;;;;;;5050568;28;20222;-57
2023/10/24 01:17:49;;;;;;;10.35;7.55;;;12.30;99.90;;;;;;5050838;28;20752;-57
2023/10/24 01:20:17;;;;;;;10.63;8.52;;;12.30;99.90;;;;;;5051051;28;20202;-57
2023/10/24 01:22:47;;;;;;;11.20;7.72;;;12.30;99.90;;;;;;5050889;28;20656;-58
2023/10/24 01:25:15;;;;;;;13.00;8.23;;;12.30;99.90;;;;;;5059067;28;20257;-59
2023/10/24 01:27:44;;;;;;;8.80;7.78;;;12.20;99.90;;;;;;5051122;28;20198;-58
2023/10/24 01:30:12;;;;;;;17.92;7.85;;;12.20;99.90;;;;;;5050959;28;20221;-57
2023/10/24 01:32:40;;;;;;;14.75;7.75;;;12.20;99.90;;;;;;5050865;28;20225;-59
2023/10/24 01:35:10;;;;;;;13.30;7.57;;;12.20;99.90;;;;;;5050336;28;20226;-59
2023/10/24 01:37:38;;;;;;;11.82;7.50;;;12.20;99.90;;;;;;5050891;28;20285;-58
2023/10/24 01:40:08;;;;;;;13.30;7.35;;;12.20;99.90;;;;;;5050821;28;20226;-58
2023/10/24 01:42:37;;;;;;;9.65;7.28;;;12.20;99.90;;;;;;5050930;28;20421;-58
2023/10/24 01:45:06;;;;;;;13.25;7.18;;;12.20;99.90;;;;;;5050442;28;20226;-59
2023/10/24 01:47:34;;;;;;;11.55;6.93;;;12.20;99.90;;;;;;5050498;28;20242;-59
2023/10/24 01:50:02;;;;;;;15.50;7.50;;;12.20;99.90;;;;;;5050951;28;20213;-58
2023/10/24 01:52:31;;;;;;;8.30;7.25;;;12.20;99.90;;;;;;5050774;28;20209;-57
2023/10/24 01:54:59;;;;;;;10.65;7.03;;;12.20;99.90;;;;;;5050589;28;20328;-58
2023/10/24 01:57:28;;;;;;;8.45;7.00;;;12.20;99.90;;;;;;5050679;28;20285;-58
2023/10/24 01:59:56;;;;;;;11.45;7.50;;;12.20;99.90;;;;;;5050747;28;20648;-58
2023/10/24 02:02:26;;;;;;;7.90;7.20;;;12.20;99.90;;;;;;5053411;28;20229;-58
2023/10/24 02:04:54;;;;;;;8.93;7.00;;;12.20;99.90;;;;;;5054350;28;20714;-57
2023/10/24 02:07:27;;;;;;;11.45;7.72;;;12.20;99.90;;;;;;5054500;28;20205;-58
2023/10/24 02:09:55;;;;;;;11.23;7.53;;;12.20;99.90;;;;;;5054842;28;20212;-59
2023/10/24 02:12:23;;;;;;;8.98;6.68;;;12.20;99.90;;;;;;5053960;28;20640;-58
2023/10/24 02:14:53;;;;;;;13.43;6.97;;;12.30;99.90;;;;;;5053960;28;20261;-58
2023/10/24 02:17:21;;;;;;;12.57;6.95;;;12.30;99.90;;;;;;5054928;28;20244;-58
2023/10/24 02:19:49;;;;;;;11.75;7.10;;;12.30;99.90;;;;;;5054539;28;20221;-57
2023/10/24 02:22:17;;;;;;;11.45;7.07;;;12.30;99.90;;;;;;5053914;28;20220;-56
2023/10/24 02:24:44;;;;;;;10.75;7.47;;;12.30;99.90;;;;;;5052954;28;20761;-57
2023/10/24 02:27:13;;;;;;;14.35;7.78;;;12.30;99.90;;;;;;5053764;28;20259;-58
2023/10/24 02:29:40;;;;;;;12.20;7.50;;;12.30;99.90;;;;;;5053941;28;20675;-57
2023/10/24 02:32:10;;;;;;;13.68;7.35;;;12.30;99.90;;;;;;5053848;28;20296;-57
2023/10/24 02:34:38;;;;;;;12.70;7.82;;;12.30;99.90;;;;;;5053932;28;20222;-58
2023/10/24 02:37:06;;;;;;;12.88;7.65;;;12.30;99.90;;;;;;5054680;28;20276;-59
2023/10/24 02:39:34;;;;;;;12.77;7.85;;;12.30;99.90;;;;;;5060786;28;20254;-59
2023/10/24 02:42:02;;;;;;;12.15;7.88;;;12.30;99.90;;;;;;5053872;28;20208;-57
2023/10/24 02:44:30;;;;;;;12.50;8.65;;;12.30;99.90;;;;;;5053573;28;20635;-58
2023/10/24 02:46:58;;;;;;;12.90;8.60;;;12.30;99.90;;;;;;5053952;28;20253;-57
2023/10/24 02:49:27;;;;;;;11.25;7.95;;;12.30;99.90;;;;;;5061939;28;20649;-57
2023/10/24 02:51:55;;;;;;;14.40;7.80;;;12.30;99.90;;;;;;5053546;28;20217;-57
2023/10/24 02:54:23;;;;;;;10.80;7.53;;;12.30;99.90;;;;;;5053371;28;20667;-57
2023/10/24 02:56:51;;;;;;;10.57;7.90;;;12.30;99.90;;;;;;5053610;28;20199;-57
2023/10/24 02:59:19;;;;;;;14.95;7.72;;;12.30;99.90;;;;;;5053203;28;20258;-57
2023/10/24 03:01:47;;;;;;;16.25;8.43;;;12.30;99.90;;;;;;5053307;28;20260;-57
2023/10/24 03:04:15;;;;;;;9.80;7.35;;;12.30;99.90;;;;;;5053259;28;20622;-58
2023/10/24 03:06:44;;;;;;;10.73;8.15;;;12.30;99.90;;;;;;5053088;28;20213;-58
2023/10/24 03:09:12;;;;;;;12.07;7.90;;;12.30;99.90;;;;;;5053292;28;20594;-57
2023/10/24 03:11:40;;;;;;;13.40;8.23;;;12.30;99.90;;;;;;5052628;28;20198;-57
2023/10/24 03:14:08;;;;;;;18.83;8.93;;;12.30;99.90;;;;;;5053163;28;20228;-57
2023/10/24 03:16:35;;;;;;;9.90;8.13;;;12.30;99.90;;;;;;5053001;28;20308;-56
2023/10/24 03:19:03;;;;;;;15.25;8.90;;;12.30;99.90;;;;;;5052913;28;20695;-57
2023/10/24 03:21:31;;;;;;;13.45;8.70;;;12.30;99.90;;;;;;5053371;28;20241;-56
2023/10/24 03:24:00;;;;;;;15.73;8.52;;;12.30;99.90;;;;;;5061017;28;20228;-57
2023/10/24 03:26:28;;;;;;;13.70;8.63;;;12.30;99.90;;;;;;5044576;28;20308;-56
2023/10/24 03:28:56;;;;;;;13.20;8.35;;;12.20;99.90;;;;;;5053022;28;20206;-60
2023/10/24 03:31:24;;;;;;;11.45;8.82;;;12.30;99.90;;;;;;5051045;28;20289;-60
2023/10/24 03:33:52;;;;;;;14.23;8.63;;;12.20;99.90;;;;;;5052592;28;20555;-60
2023/10/24 03:36:20;;;;;;;12.00;8.43;;;12.30;99.90;;;;;;5055003;28;20253;-60
2023/10/24 03:38:48;;;;;;;13.60;8.93;;;12.30;99.90;;;;;;5058631;28;20255;-60
2023/10/24 03:41:17;;;;;;;13.90;8.95;;;12.30;99.90;;;;;;5052584;28;20312;-60
2023/10/24 03:43:48;;;;;;;13.98;8.90;;;12.30;99.90;;;;;;5051853;28;20234;-61
2023/10/24 03:46:16;;;;;;;12.45;7.90;;;12.30;99.90;;;;;;5060242;28;20225;-60
2023/10/24 03:48:44;;;;;;;10.35;7.97;;;12.30;99.90;;;;;;5049194;28;20206;-60
2023/10/24 03:51:12;;;;;;;14.48;8.88;;;12.30;99.90;;;;;;5052227;28;20297;-61
2023/10/24 03:53:40;;;;;;;18.27;8.70;;;12.30;99.90;;;;;;5052495;28;20225;-60
2023/10/24 03:56:07;;;;;;;13.77;8.70;;;12.30;99.90;;;;;;5052157;28;20320;-60
2023/10/24 03:58:37;;;;;;;15.25;8.73;;;12.30;99.90;;;;;;5056743;28;20201;-59
2023/10/24 04:01:05;;;;;;;14.38;9.15;;;12.30;99.90;;;;;;5055006;28;20225;-59
2023/10/24 04:03:34;;;;;;;15.57;9.52;;;12.30;99.90;;;;;;5052576;28;20241;-61
2023/10/24 04:06:03;;;;;;;15.90;8.95;;;12.30;99.90;;;;;;5060455;28;20253;-57
2023/10/24 04:08:31;;;;;;;13.55;8.10;;;12.30;99.90;;;;;;5052293;28;20677;-57
2023/10/24 04:10:59;;;;;;;9.88;8.90;;;12.30;99.90;;;;;;5052071;28;20242;-56
2023/10/24 04:13:26;;;;;;;16.30;8.60;;;12.30;99.90;;;;;;5051923;28;20240;-61
2023/10/24 04:15:59;;;;;;;19.60;8.40;;;12.30;99.90;;;;;;5051788;28;20304;-60
2023/10/24 04:18:27;;;;;;;11.73;8.25;;;12.30;99.90;;;;;;5052182;28;20288;-61
2023/10/24 04:20:55;;;;;;;14.43;8.75;;;12.30;99.90;;;;;;5051871;28;20230;-60
2023/10/24 04:23:38;;;;;;;11.50;8.65;;;12.30;99.90;;;;;;5017506;28;20206;-61
2023/10/24 04:26:06;;;;;;;9.63;8.63;;;12.20;99.90;;;;;;5047776;28;20276;-58
2023/10/24 04:28:34;;;;;;;13.45;9.05;;;12.20;99.90;;;;;;5043018;28;20212;-60
2023/10/24 04:31:03;;;;;;;11.90;8.15;;;12.20;99.90;;;;;;5051659;28;20217;-59
2023/10/24 04:33:31;;;;;;;13.43;9.73;;;12.20;99.90;;;;;;5049503;28;20209;-61
2023/10/24 04:35:59;;;;;;;15.27;9.93;;;12.20;99.90;;;;;;5051366;28;20313;-60
2023/10/24 04:38:27;;;;;;;15.57;9.88;;;12.20;99.90;;;;;;5051600;28;20241;-61
2023/10/24 04:40:55;;;;;;;18.80;9.90;;;12.20;99.90;;;;;;5051620;28;20225;-60
2023/10/24 04:43:23;;;;;;;13.45;9.57;;;12.20;99.90;;;;;;5051460;28;20205;-60
2023/10/24 04:45:52;;;;;;;15.38;9.93;;;12.20;99.90;;;;;;5049464;28;20232;-61
2023/10/24 04:48:21;;;;;;;13.25;9.23;;;12.20;99.90;;;;;;5051175;28;20682;-61
2023/10/24 04:50:49;;;;;;;13.10;9.70;;;12.20;99.90;;;;;;5051173;28;20202;-61
2023/10/24 04:53:17;;;;;;;11.00;9.38;;;12.20;99.90;;;;;;5051384;28;20268;-61
2023/10/24 04:55:45;;;;;;;13.45;10.02;;;12.20;99.90;;;;;;5059537;28;20268;-60
2023/10/24 04:58:13;;;;;;;16.98;9.75;;;12.20;99.90;;;;;;5051229;28;20206;-60
2023/10/24 05:00:41;;;;;;;13.43;9.55;;;12.20;99.90;;;;;;5050645;28;20229;-60
2023/10/24 05:03:09;;;;;;;11.43;9.95;;;12.20;99.90;;;;;;5059368;28;20300;-61
2023/10/24 05:05:39;;;;;;;11.88;8.82;;;12.20;99.90;;;;;;5050957;28;20228;-61
2023/10/24 05:08:10;;;;;;;11.90;9.18;;;12.10;99.90;;;;;;5051222;28;20237;-61
2023/10/24 05:10:38;;;;;;;14.65;9.73;;;12.10;99.90;;;;;;5043562;28;20198;-61
2023/10/24 05:13:06;;;;;;;11.98;8.57;;;12.20;99.90;;;;;;5059683;28;20209;-60
2023/10/24 05:15:33;;;;;;;10.85;8.93;;;12.10;99.90;;;;;;5051108;28;20218;-61
2023/10/24 05:18:02;;;;;;;15.63;9.35;;;12.10;99.90;;;;;;5051213;28;20212;-60
2023/10/24 05:20:30;;;;;;;13.70;8.88;;;12.10;99.90;;;;;;5051306;28;20604;-61
2023/10/24 05:22:59;;;;;;;11.60;8.93;;;12.20;99.90;;;;;;5051168;28;20242;-60
2023/10/24 05:25:27;;;;;;;12.02;9.13;;;12.10;99.90;;;;;;5051053;28;20233;-61
2023/10/24 05:27:55;;;;;;;11.93;9.10;;;12.10;99.90;;;;;;5051041;28;20198;-61
2023/10/24 05:30:23;;;;;;;10.57;7.88;;;12.10;99.90;;;;;;5050983;28;20205;-59
2023/10/24 05:32:51;;;;;;;9.93;8.65;;;12.10;99.90;;;;;;5051108;28;20304;-58
2023/10/24 05:35:19;;;;;;;10.68;7.82;;;12.10;99.90;;;;;;5051830;28;20703;-59
2023/10/24 05:37:47;;;;;;;16.88;9.15;;;12.10;99.90;;;;;;5048539;28;20238;-59
2023/10/24 05:40:16;;;;;;;14.27;9.52;;;12.10;99.90;;;;;;5052043;28;20210;-57
2023/10/24 05:42:44;;;;;;;13.55;9.30;;;12.10;99.90;;;;;;5054636;28;20209;-59
2023/10/24 05:45:12;;;;;;;11.88;9.20;;;12.00;99.90;;;;;;5054639;28;20232;-60
2023/10/24 05:47:40;;;;;;;15.70;9.77;;;12.00;99.90;;;;;;5054878;28;20244;-57
2023/10/24 05:50:09;;;;;;;22.77;10.10;;;12.00;99.90;;;;;;5055082;28;20683;-59
2023/10/24 05:52:37;;;;;;;10.32;9.20;;;12.00;99.90;;;;;;5056166;28;20234;-57
2023/10/24 05:55:06;;;;;;;13.15;9.60;;;12.00;99.90;;;;;;5054457;28;20237;-57
2023/10/24 05:57:35;;;;;;;14.57;9.88;;;12.00;99.90;;;;;;5054312;28;20288;-56
2023/10/24 06:00:05;;;;;;;11.82;8.85;;;12.00;99.90;;;;;;5082345;22;20229;-60
2023/10/24 06:02:33;;;;;;;12.55;6.47;;;12.00;99.90;;;;;;5073292;28;20252;-59
2023/10/24 06:05:02;;;;;;;14.80;8.35;;;12.10;99.90;;;;;;5068988;28;20216;-59
2023/10/24 06:07:30;;;;;;;11.60;8.35;;;12.20;99.90;;;;;;5072092;28;20278;-59
2023/10/24 06:09:58;;;;;;;14.07;9.25;;;12.30;99.90;;;;;;5074556;28;20291;-59
2023/10/24 06:12:27;;;;;;;18.83;9.07;;;12.20;99.90;;;;;;5074368;28;20719;-59
2023/10/24 06:14:57;;;;;;;14.73;10.05;;;12.20;99.90;;;;;;5074660;28;20292;-59
2023/10/24 06:17:25;;;;;;;22.13;10.90;;;12.20;99.90;;;;;;5074513;28;20568;-59
2023/10/24 06:19:53;;;;;;;12.80;10.52;;;12.20;99.90;;;;;;5074465;28;20247;-58
2023/10/24 06:22:21;;;;;;;17.95;10.80;;;12.20;99.90;;;;;;5074132;28;20690;-58
2023/10/24 06:24:49;;;;;;;17.90;11.48;;;12.10;99.90;;;;;;5074248;28;20213;-59
2023/10/24 06:27:17;;;;;;;15.27;10.50;;;12.20;99.90;;;;;;5074199;28;20206;-58
2023/10/24 06:29:44;;;;;;;15.02;10.32;;;12.20;99.90;;;;;;5074484;28;20670;-58
2023/10/24 06:32:14;;;;;;;14.70;11.05;;;12.20;99.90;;;;;;5070120;28;20274;-59
2023/10/24 06:34:42;;;;;;;15.65;11.35;;;12.20;99.90;;;;;;5073990;28;20201;-59
2023/10/24 06:37:10;;;;;;;15.25;10.93;;;12.10;99.90;;;;;;5073994;28;20213;-58
2023/10/24 06:39:37;;;;;;;15.63;10.93;;;12.20;99.90;;;;;;5074233;28;20221;-59
2023/10/24 06:42:06;;;;;;;14.93;10.80;;;12.10;99.90;;;;;;5074026;28;20221;-57
2023/10/24 06:44:34;;;;;;;13.15;10.40;;;12.20;99.90;;;;;;5073968;28;20248;-59
2023/10/24 06:47:01;;;;;;;15.02;10.93;;;12.20;99.90;;;;;;5072736;28;20590;-60
2023/10/24 06:49:31;;;;;;;22.08;10.77;;;12.20;99.90;;;;;;5072937;28;20224;-59
2023/10/24 06:51:59;;;;;;;17.10;11.57;;;12.20;99.90;;;;;;5074171;28;20233;-58
2023/10/24 06:54:27;;;;;;;12.00;10.63;;;12.10;99.90;;;;;;5073581;28;20674;-57
2023/10/24 06:56:55;;;;;;;12.18;10.88;;;12.10;99.90;;;;;;5073587;28;20205;-56
2023/10/24 06:59:23;;;;;;;12.80;10.38;;;12.20;99.90;;;;;;5073491;28;20653;-57
2023/10/24 07:01:51;;;;;;;14.48;11.05;;;12.20;99.90;;;;;;5073216;28;20232;-58
2023/10/24 07:04:19;;;;;;;15.68;11.45;;;12.20;99.90;;;;;;5073501;28;20205;-57
2023/10/24 07:06:48;;;;;;;16.38;10.75;;;12.20;99.90;;;;;;5073839;28;20206;-57
2023/10/24 07:09:16;;;;;;;19.83;11.60;;;12.20;99.90;;;;;;5073505;28;20753;-57
2023/10/24 07:11:44;;;;;;;13.55;11.60;;;12.20;99.90;;;;;;5073394;28;20229;-57
2023/10/24 07:14:12;;;;;;;19.15;10.88;;;12.20;99.90;;;;;;5073432;28;20201;-57
2023/10/24 07:16:40;;;;;;;17.38;11.38;;;12.30;99.90;;;;;;5071851;28;20284;-57
2023/10/24 07:19:08;;;;;;;17.38;11.45;;;12.30;99.90;;;;;;5073610;28;20229;-56
2023/10/24 07:21:36;;;;;;;22.73;12.45;;;12.30;99.90;;;;;;5071881;28;21054;-57
2023/10/24 07:24:06;;;;;;;17.17;12.43;;;12.30;99.90;;;;;;5073306;28;20260;-57
2023/10/24 07:26:33;;;;;;;16.80;13.05;;;12.30;99.90;;;;;;5073110;28;20241;-58
2023/10/24 07:29:01;;;;;;;20.20;12.32;;;12.30;99.90;;;;;;5073324;28;20660;-57
2023/10/24 07:31:29;;;;;;;14.10;11.75;;;12.30;99.90;;;;;;5073129;28;20301;-56
2023/10/24 07:33:57;;;;;;;22.80;12.02;;;12.30;99.90;;;;;;5073282;28;20223;-58
2023/10/24 07:36:30;;;;;;;16.77;11.38;;;12.40;99.90;;;;;;5072967;28;20300;-56
2023/10/24 07:39:00;;;;;;;19.00;12.43;;;12.40;99.90;;;;;;5073080;28;20225;-57
2023/10/24 07:41:29;;;;;;;15.23;11.43;;;12.40;99.90;;;;;;5072677;28;20228;-57
2023/10/24 07:43:57;;;;;;;15.88;11.77;;;12.40;99.90;;;;;;5072888;28;20230;-57
2023/10/24 07:46:25;;;;;;;20.92;11.93;;;12.40;99.90;;;;;;5071366;28;20291;-59
2023/10/24 07:48:53;;;;;;;17.15;11.75;;;12.40;99.90;;;;;;5070470;28;20260;-56
2023/10/24 07:51:21;;;;;;;14.35;11.52;;;12.40;99.90;;;;;;5068578;28;20213;-58
2023/10/24 07:53:49;;;;;;;17.15;13.05;;;12.40;99.90;;;;;;5072775;28;20250;-60
2023/10/24 07:56:17;;;;;;;13.32;11.73;;;12.50;99.90;;;;;;5072425;28;20212;-59
2023/10/24 07:58:46;;;;;;;20.70;12.15;;;12.50;99.90;;;;;;5073000;28;20296;-59
2023/10/24 08:01:14;;;;;;;13.30;11.68;;;12.50;99.90;;;;;;5072965;28;20208;-60
2023/10/24 08:03:43;;;;;;;15.68;12.80;;;12.50;99.90;;;;;;5072484;28;20696;-58
2023/10/24 08:06:11;;;;;;;19.92;12.65;;;12.50;99.90;;;;;;5072674;28;20209;-58
2023/10/24 08:08:39;;;;;;;14.80;12.23;;;12.50;99.90;;;;;;5072115;28;20248;-58
2023/10/24 08:11:07;;;;;;;16.38;12.70;;;12.50;99.90;;;;;;5072415;28;20216;-59
2023/10/24 08:13:35;;;;;;;16.83;12.80;;;12.50;99.90;;;;;;5072233;28;20198;-59
2023/10/24 08:16:05;;;;;;;17.88;12.60;;;12.50;99.90;;;;;;5072525;28;20296;-58
2023/10/24 08:18:34;;;;;;;14.10;12.65;;;12.50;99.90;;;;;;5072003;28;20222;-59
2023/10/24 08:21:02;;;;;;;18.92;12.65;;;12.50;99.90;;;;;;5072445;28;20274;-58
2023/10/24 08:23:30;;;;;;;17.60;12.70;;;12.50;99.90;;;;;;5070192;28;20229;-58
2023/10/24 08:25:58;;;;;;;20.13;12.13;;;12.60;99.90;;;;;;5072066;28;20240;-59
2023/10/24 08:28:26;;;;;;;21.48;13.20;;;12.50;99.90;;;;;;5071698;28;20213;-59
2023/10/24 08:30:54;;;;;;;19.98;12.98;;;12.50;99.90;;;;;;5072001;28;20583;-59
2023/10/24 08:33:23;;;;;;;17.23;13.10;;;12.50;99.90;;;;;;5071734;28;20300;-60
2023/10/24 08:35:51;;;;;;;16.50;12.60;;;12.50;99.90;;;;;;5071676;28;20583;-59
2023/10/24 08:38:19;;;;;;;20.30;13.75;;;12.60;99.90;;;;;;5067248;28;20628;-59
2023/10/24 08:40:49;;;;;;;16.58;13.38;;;12.50;99.90;;;;;;5064197;28;20292;-59
2023/10/24 08:43:18;;;;;;;19.23;13.63;;;12.50;99.90;;;;;;5071354;28;20257;-59
2023/10/24 08:45:46;;;;;;;19.17;13.77;;;12.60;99.90;;;;;;5063364;28;20205;-59
2023/10/24 08:48:14;;;;;;;14.95;12.93;;;12.60;99.90;;;;;;5071268;28;20292;-59
2023/10/24 08:50:44;;;;;;;19.45;14.32;;;12.60;99.90;;;;;;5071582;28;20312;-59
2023/10/24 08:53:13;;;;;;;21.10;12.75;;;12.60;99.90;;;;;;5070202;28;20769;-59
2023/10/24 08:55:42;;;;;;;17.40;13.00;;;12.60;99.90;;;;;;5071668;28;20220;-59
2023/10/24 08:58:10;;;;;;;16.60;13.45;;;12.60;99.90;;;;;;5070410;28;20236;-59
2023/10/24 09:00:39;;;;;;;18.67;12.95;;;12.60;99.90;;;;;;5071499;28;20779;-59
2023/10/24 09:03:07;;;;;;;15.82;12.70;;;12.60;99.90;;;;;;5071320;28;20236;-59
2023/10/24 09:05:35;;;;;;;15.52;13.25;;;12.60;99.90;;;;;;5071458;28;20237;-59
2023/10/24 09:08:05;;;;;;;20.10;14.48;;;12.60;99.90;;;;;;5071224;28;20240;-59
2023/10/24 09:10:33;;;;;;;18.10;13.18;;;12.60;99.90;;;;;;5070924;28;20759;-59
2023/10/24 09:13:01;;;;;;;14.93;13.35;;;12.60;99.90;;;;;;5071437;28;20209;-59
2023/10/24 09:15:30;;;;;;;20.85;14.93;;;12.60;99.90;;;;;;5071215;28;20209;-59
2023/10/24 09:17:58;;;;;;;19.30;14.45;;;12.60;99.90;;;;;;5071376;28;20292;-59
2023/10/24 09:20:30;;;;;;;17.92;13.40;;;12.70;99.90;;;;;;5071521;28;20316;-59
2023/10/24 09:23:05;;;;;;;17.60;14.05;;;12.70;99.90;;;;;;5071371;28;20257;-59
2023/10/24 09:25:32;;;;;;;18.15;13.68;;;12.70;99.90;;;;;;5071218;28;20232;-59
2023/10/24 09:28:15;;;;;;;16.05;13.10;;;12.70;99.90;;;;;;5071257;28;20728;-60
2023/10/24 09:30:43;;;;;;;14.98;13.25;;;12.70;99.90;;;;;;5071562;28;20278;-59
2023/10/24 09:33:11;;;;;;;17.40;13.88;;;12.80;99.90;;;;;;5071086;28;20206;-59
2023/10/24 09:35:40;;;;;;;16.40;13.77;;;12.70;99.90;;;;;;5071328;28;20209;-59
2023/10/24 09:38:09;;;;;;;18.13;13.05;;;12.80;99.90;;;;;;5071139;28;20243;-59
2023/10/24 09:40:38;;;;;;;16.55;13.20;;;12.80;99.90;;;;;;5071032;28;20288;-59
2023/10/24 09:43:11;;;;;;;16.73;12.75;;;12.80;99.90;;;;;;5071193;28;20228;-59
2023/10/24 09:45:40;;;;;;;17.92;13.15;;;12.80;99.90;;;;;;5071302;28;20201;-59
2023/10/24 09:48:08;;;;;;;17.33;14.15;;;12.80;99.90;;;;;;5071009;28;20259;-59
2023/10/24 09:50:38;;;;;;;14.88;12.13;;;12.90;99.90;;;;;;5070931;28;20705;-59
2023/10/24 09:53:06;;;;;;;15.68;12.57;;;12.90;99.90;;;;;;5070865;28;20613;-59
2023/10/24 09:55:35;;;;;;;16.67;12.13;;;12.90;99.90;;;;;;5071071;28;20240;-58
2023/10/24 09:58:04;;;;;;;16.70;12.43;;;12.90;99.90;;;;;;5069839;28;20294;-60
2023/10/24 10:00:32;;;;;;;14.45;11.65;;;12.90;99.90;;;;;;5059947;28;20685;-59
2023/10/24 10:03:00;;;;;;;14.48;11.80;;;12.90;99.90;;;;;;5068226;28;20233;-60
2023/10/24 10:05:29;;;;;;;13.30;11.88;;;12.90;99.90;;;;;;5062842;28;20297;-59
2023/10/24 10:07:58;;;;;;;16.65;13.50;;;12.90;99.90;;;;;;5071082;28;20205;-59
2023/10/24 10:10:27;;;;;;;13.15;11.68;;;12.90;99.90;;;;;;5070962;28;20278;-60
2023/10/24 10:12:59;;;;;;;16.83;12.20;;;13.00;99.90;;;;;;5070767;28;20662;-59
2023/10/24 10:15:38;;;;;;;15.50;12.90;;;13.00;99.90;;;;;;5070845;28;20209;-59
2023/10/24 10:18:20;;;;;;;15.50;13.02;;;13.00;99.90;;;;;;5070764;28;20220;-59
2023/10/24 10:20:54;;;;;;;16.23;13.32;;;13.00;99.90;;;;;;5071000;28;20229;-59
2023/10/24 10:23:36;;;;;;;15.45;12.60;;;13.00;99.90;;;;;;5068537;28;20363;-59
2023/10/24 10:26:06;;;;;;;20.52;14.73;;;13.10;99.90;;;;;;5072555;28;20292;-58
2023/10/24 10:28:50;;;;;;;20.42;15.02;;;13.00;99.90;;;;;;5074053;28;20252;-59
2023/10/24 10:31:34;;;;;;;18.75;15.23;;;13.10;99.90;;;;;;5074437;28;20255;-59
2023/10/24 10:34:32;;;;;;;17.85;14.38;;;13.00;99.90;;;;;;5069990;28;20212;-59
2023/10/24 10:37:00;;;;;;;21.30;16.13;;;13.00;99.90;;;;;;5073073;28;20212;-61
2023/10/24 10:39:28;;;;;;;21.10;16.00;;;13.00;99.90;;;;;;5074345;28;20246;-61
2023/10/24 10:41:56;;;;;;;21.35;16.10;;;13.00;99.90;;;;;;5073891;28;20579;-60
2023/10/24 10:44:43;;;;;;;19.75;16.08;;;13.00;99.90;;;;;;5073792;28;20225;-59
2023/10/24 10:47:13;;;;;;;19.48;15.63;;;13.00;99.90;;;;;;5068201;28;20205;-61
2023/10/24 10:49:48;;;;;;;19.65;15.80;;;13.00;99.90;;;;;;5070978;28;20230;-60
2023/10/24 10:52:22;;;;;;;18.98;15.63;;;13.00;99.90;;;;;;5067925;28;20270;-61
2023/10/24 10:54:55;;;;;;;22.33;17.02;;;13.00;99.90;;;;;;5072876;28;20201;-60
2023/10/24 10:57:28;;;;;;;21.45;16.70;;;13.10;99.90;;;;;;5068175;28;20217;-60
2023/10/24 11:00:02;;;;;;;24.60;18.55;;;13.10;99.90;;;;;;5065910;28;20241;-59
2023/10/24 11:02:48;;;;;;;20.90;17.15;;;13.10;99.90;;;;;;5073471;28;20282;-61
2023/10/24 11:05:47;;;;;;;20.45;16.90;;;13.10;99.90;;;;;;5072488;28;20637;-61
2023/10/24 11:08:18;;;;;;;20.38;16.65;;;13.10;99.90;;;;;;5070972;28;20916;-61
2023/10/24 11:10:55;;;;;;;19.60;17.20;;;13.10;99.90;;;;;;5073808;28;20241;-62
2023/10/24 11:13:33;;;;;;;18.92;16.67;;;13.10;99.90;;;;;;5073746;28;20204;-60
2023/10/24 11:16:03;;;;;;;17.90;15.90;;;13.10;99.90;;;;;;5073508;28;20633;-62
2023/10/24 11:18:36;;;;;;;19.52;16.10;;;13.10;99.90;;;;;;5073261;28;20231;-61
2023/10/24 11:21:05;;;;;;;18.25;15.35;;;13.10;99.90;;;;;;5073336;28;20250;-62
2023/10/24 11:23:33;;;;;;;20.48;16.48;;;13.10;99.90;;;;;;5073511;28;20270;-62
2023/10/24 11:26:02;;;;;;;21.30;15.48;;;13.10;99.90;;;;;;5073040;28;20205;-60
2023/10/24 11:28:30;;;;;;;19.90;15.98;;;13.10;99.90;;;;;;5072517;28;20216;-60
2023/10/24 11:30:58;;;;;;;17.73;15.13;;;13.20;99.90;;;;;;5073183;28;20201;-61
2023/10/24 11:33:27;;;;;;;18.65;15.20;;;13.20;99.90;;;;;;5073529;28;20267;-61
2023/10/24 11:35:55;;;;;;;18.48;14.77;;;13.20;99.90;;;;;;5073454;28;20209;-60
2023/10/24 11:38:23;;;;;;;16.08;14.38;;;13.20;99.90;;;;;;5073030;28;20445;-61
2023/10/24 11:40:51;;;;;;;16.58;14.65;;;13.20;99.90;;;;;;5072948;28;20705;-61
2023/10/24 11:43:19;;;;;;;20.50;14.48;;;13.30;99.90;;;;;;5073003;28;20201;-61
2023/10/24 11:45:46;;;;;;;16.55;14.10;;;13.30;99.90;;;;;;5072885;28;20209;-61
2023/10/24 11:48:14;;;;;;;18.35;14.57;;;13.30;99.90;;;;;;5071882;28;20244;-61
2023/10/24 11:50:45;;;;;;;16.70;14.27;;;13.30;99.90;;;;;;5072822;28;20205;-61
2023/10/24 11:53:13;;;;;;;15.70;12.65;;;13.30;99.90;;;;;;5072607;28;20216;-60
2023/10/24 11:55:41;;;;;;;16.25;12.82;;;13.30;99.90;;;;;;5072790;28;20198;-61
2023/10/24 11:58:11;;;;;;;16.65;12.10;;;13.30;99.90;;;;;;5072618;28;20209;-61
2023/10/24 12:00:41;;;;;;;14.32;11.70;;;13.30;99.90;;;;;;5072832;28;20266;-58
2023/10/24 12:03:09;;;;;;;16.23;11.68;;;13.30;99.90;;;;;;5072629;28;20233;-57
2023/10/24 12:05:38;;;;;;;13.35;10.88;;;13.30;99.90;;;;;;5072350;28;20312;-56
2023/10/24 12:08:07;;;;;;;11.57;10.43;;;13.30;99.90;;;;;;5072634;28;20239;-55
2023/10/24 12:10:35;;;;;;;11.18;9.90;;;13.40;99.90;;;;;;5072304;28;20649;-56
2023/10/24 12:13:04;;;;;;;13.18;10.68;;;13.40;99.90;;;;;;5072306;28;20659;-57
2023/10/24 12:15:32;;;;;;;10.73;9.60;;;13.40;99.90;;;;;;5072264;28;20297;-57
2023/10/24 12:18:04;;;;;;;12.45;10.23;;;13.40;99.90;;;;;;5072409;28;20575;-57
2023/10/24 12:20:32;;;;;;;11.98;10.77;;;13.40;99.90;;;;;;5072274;28;20260;-60
2023/10/24 12:23:00;;;;;;;16.40;10.60;;;13.40;99.90;;;;;;5072059;28;20243;-57
2023/10/24 12:25:32;;;;;;;17.30;10.88;;;13.40;99.90;;;;;;5072303;28;20248;-56
2023/10/24 12:28:04;;;;;;;11.52;10.18;;;13.40;99.90;;;;;;5072353;28;20223;-56
2023/10/24 12:30:32;;;;;;;11.98;10.20;;;13.40;99.90;;;;;;5072121;28;20263;-57
2023/10/24 12:33:00;;;;;;;13.63;11.00;;;13.40;99.90;;;;;;5071969;28;20208;-57
2023/10/24 12:35:28;;;;;;;16.25;10.73;;;13.40;99.90;;;;;;5071962;28;20209;-57
2023/10/24 12:37:56;;;;;;;13.70;11.65;;;13.40;99.90;;;;;;5072169;28;20236;-57
2023/10/24 12:40:24;;;;;;;15.32;11.00;;;13.50;99.90;;;;;;5071817;28;20824;-56
2023/10/24 12:42:52;;;;;;;15.00;12.13;;;13.70;99.90;;;;;;5071897;28;20303;-57